Accueil
METAR-TAF:

METAR-TAF

Aéroports :

St Mary's, Alaska, États-Unis

latitude: 62-03N, longitude: 163-18W, altitude: 95 m

Observation

Le bulletin a été fait il y a 25 minutes, à 23:02 UTC
Vent 3 kt de sud/sud-ouest
Température -14°C
Humidité 85%
Pression 1011 hPa
Visibilité: 12.9 km
Quelques nuages à une hauteur de 2700 ft
Nuages fragmentés à une hauteur de 4900 ft
Ciel couvert à une hauteur de 6000 ft
neige faible

METAR: PASM 222302Z AUTO 21003KT 8SM -SN FEW027 BKN049 OVC060 M14/M16 A2984 RMK AO2 SLP118 P0000 T11391156 FZRANO

Heure: 14:27 (23:27 UTC)


TAF: absent

Observations et prévisions météorologiques de plus de 4000 aéroports (messages METAR et TAF).

Les stations disponibles sont représentées par des disques jaunes et rouges sur la carte.

Passer la souris dessus pour voir le nom de la station.

Cliquer dessus pour voir les observations et prévisions météorologiques.

Pour changer de carte: cliquez sur les boutons verts avec une croix noire pour zoomer, sur le bouton vert avec un tiret pour effectuer un zoom arrière, ou sur les flèches vertes pour les cartes adjacentes.


METAR-TAF: